Time;durP1;ratioP1;P1;durP2;ratioP2;P2;SDS_P1;SDS_P2;PMS_P1;PMS_P2;Temp;Humidity;BMP_temperature;BMP_pressure;BME280_temperature;BME280_humidity;BME280_pressure;Samples;Min_cycle;Max_cycle;Signal;HPM_P1;HPM_P2
2023/09/05 00:01:22;;;;;;;3.70;3.40;;;;;;;;;;5074818;28;20957;-69
2023/09/05 00:03:49;;;;;;;3.73;3.30;;;;;;;;;;5093654;28;20411;-70
2023/09/05 00:06:16;;;;;;;4.10;3.60;;;;;;;;;;5093639;28;20804;-68
2023/09/05 00:08:42;;;;;;;3.97;3.67;;;;;;;;;;5093658;28;20461;-69
2023/09/05 00:11:08;;;;;;;3.67;3.30;;;;;;;;;;5093554;28;20415;-69
2023/09/05 00:13:34;;;;;;;4.53;3.63;;;;;;;;;;5075394;28;20444;-69
2023/09/05 00:16:00;;;;;;;4.00;3.57;;;;;;;;;;5093257;28;20470;-69
2023/09/05 00:18:26;;;;;;;4.00;3.60;;;;;;;;;;5075008;28;20464;-69
2023/09/05 00:20:54;;;;;;;5.27;3.67;;;;;;;;;;5093149;28;20460;-70
2023/09/05 00:23:21;;;;;;;3.73;3.43;;;;;;;;;;5093874;28;20407;-69
2023/09/05 00:25:47;;;;;;;4.03;3.13;;;;;;;;;;5075476;28;20432;-69
2023/09/05 00:28:13;;;;;;;3.23;2.93;;;;;;;;;;5075760;28;20768;-69
2023/09/05 00:30:39;;;;;;;3.87;3.10;;;;;;;;;;5094711;28;20416;-69
2023/09/05 00:33:05;;;;;;;3.57;3.27;;;;;;;;;;5094489;28;20954;-69
2023/09/05 00:35:31;;;;;;;3.63;3.30;;;;;;;;;;5093324;28;20920;-70
2023/09/05 00:37:58;;;;;;;3.60;3.30;;;;;;;;;;5074754;28;20468;-69
2023/09/05 00:40:26;;;;;;;3.20;2.90;;;;;;;;;;5074908;28;20487;-69
2023/09/05 00:42:52;;;;;;;3.50;3.20;;;;;;;;;;5093307;28;20468;-68
2023/09/05 00:45:19;;;;;;;4.03;3.37;;;;;;;;;;5096261;28;20403;-69
2023/09/05 00:47:47;;;;;;;4.20;3.37;;;;;;;;;;5078236;28;20439;-69
2023/09/05 00:50:17;;;;;;;3.17;2.93;;;;;;;;;;5078748;28;20423;-70
2023/09/05 00:52:44;;;;;;;4.50;3.50;;;;;;;;;;5076921;28;20415;-69
2023/09/05 00:55:10;;;;;;;3.70;3.40;;;;;;;;;;5083389;28;20520;-70
2023/09/05 00:57:36;;;;;;;4.50;3.60;;;;;;;;;;5081308;28;20468;-69
2023/09/05 01:00:03;;;;;;;4.67;3.60;;;;;;;;;;5094264;28;20466;-69
2023/09/05 01:02:29;;;;;;;3.10;2.80;;;;;;;;;;5092620;28;20449;-69
2023/09/05 01:04:55;;;;;;;5.27;3.37;;;;;;;;;;5095348;28;20719;-69
2023/09/05 01:07:24;;;;;;;3.90;3.43;;;;;;;;;;5094721;28;20821;-70
2023/09/05 01:10:08;;;;;;;5.50;3.30;;;;;;;;;;5078181;28;20466;-70
2023/09/05 01:12:34;;;;;;;3.73;3.37;;;;;;;;;;5076103;28;20414;-69
2023/09/05 01:15:00;;;;;;;4.87;3.50;;;;;;;;;;5075608;28;20451;-69
2023/09/05 01:17:26;;;;;;;2.97;2.70;;;;;;;;;;5094310;28;20462;-69
2023/09/05 01:19:55;;;;;;;5.07;3.40;;;;;;;;;;5077832;28;20462;-69
2023/09/05 01:22:21;;;;;;;3.37;3.10;;;;;;;;;;5097488;28;20408;-70
2023/09/05 01:24:49;;;;;;;4.30;3.70;;;;;;;;;;5093624;28;20407;-70
2023/09/05 01:27:17;;;;;;;3.30;3.00;;;;;;;;;;5093777;28;20438;-70
2023/09/05 01:29:44;;;;;;;3.73;3.43;;;;;;;;;;5092091;28;20417;-69
2023/09/05 01:32:10;;;;;;;3.23;2.93;;;;;;;;;;5092012;28;20404;-70
2023/09/05 01:34:36;;;;;;;4.03;3.43;;;;;;;;;;5092075;28;20409;-69
2023/09/05 01:37:02;;;;;;;3.60;3.20;;;;;;;;;;5092526;28;20798;-70
2023/09/05 01:39:28;;;;;;;3.43;3.10;;;;;;;;;;5092019;28;20463;-69
2023/09/05 01:41:54;;;;;;;3.60;3.30;;;;;;;;;;5092841;28;20452;-69
2023/09/05 01:44:20;;;;;;;3.30;3.00;;;;;;;;;;5077003;28;20422;-69
2023/09/05 01:46:46;;;;;;;3.50;3.20;;;;;;;;;;5077486;28;20522;-70
2023/09/05 01:49:13;;;;;;;3.40;3.10;;;;;;;;;;5094732;28;20471;-69
2023/09/05 01:51:38;;;;;;;4.13;3.33;;;;;;;;;;5112910;28;20411;-70
2023/09/05 01:54:05;;;;;;;3.50;3.20;;;;;;;;;;5115517;28;20406;-69
2023/09/05 01:56:30;;;;;;;3.90;3.17;;;;;;;;;;5114146;28;20458;-69
2023/09/05 01:58:56;;;;;;;9.27;3.43;;;;;;;;;;5113742;28;20457;-69
2023/09/05 02:01:22;;;;;;;3.80;3.40;;;;;;;;;;5114773;28;20398;-69
2023/09/05 02:03:49;;;;;;;3.33;3.10;;;;;;;;;;5116816;28;20963;-69
2023/09/05 02:06:15;;;;;;;3.33;3.00;;;;;;;;;;5118267;28;20449;-70
2023/09/05 02:08:41;;;;;;;3.23;2.93;;;;;;;;;;5117150;28;20549;-70
2023/09/05 02:11:09;;;;;;;4.00;3.70;;;;;;;;;;5117948;28;20459;-70
2023/09/05 02:13:35;;;;;;;3.20;2.90;;;;;;;;;;5117982;28;20410;-72
2023/09/05 02:16:01;;;;;;;3.23;2.93;;;;;;;;;;5097176;28;20466;-70
2023/09/05 02:18:27;;;;;;;3.10;2.50;;;;;;;;;;5112312;28;20407;-70
2023/09/05 02:21:00;;;;;;;4.33;3.47;;;;;;;;;;5111935;28;20914;-70
2023/09/05 02:23:26;;;;;;;3.43;3.03;;;;;;;;;;5112034;28;20789;-70
2023/09/05 02:25:59;;;;;;;3.27;3.03;;;;;;;;;;5116052;28;20414;-71
2023/09/05 02:28:25;;;;;;;3.57;3.27;;;;;;;;;;5116097;28;20888;-70
2023/09/05 02:30:51;;;;;;;3.10;2.80;;;;;;;;;;5115662;28;20831;-70
2023/09/05 02:33:18;;;;;;;3.03;2.73;;;;;;;;;;5115998;28;20434;-70
2023/09/05 02:35:44;;;;;;;3.40;2.87;;;;;;;;;;5116493;28;20431;-71
2023/09/05 02:38:10;;;;;;;2.93;2.73;;;;;;;;;;5116094;28;20417;-71
2023/09/05 02:40:36;;;;;;;2.60;2.40;;;;;;;;;;5115924;28;20508;-71
2023/09/05 02:43:02;;;;;;;3.80;3.07;;;;;;;;;;5116589;28;20409;-71
2023/09/05 02:45:28;;;;;;;3.53;3.00;;;;;;;;;;5116412;28;20423;-70
2023/09/05 02:47:54;;;;;;;3.57;2.80;;;;;;;;;;5117022;28;20414;-70
2023/09/05 02:50:20;;;;;;;2.80;2.60;;;;;;;;;;5115799;28;20431;-70
2023/09/05 02:52:46;;;;;;;3.23;2.90;;;;;;;;;;5115403;28;20416;-70
2023/09/05 02:55:12;;;;;;;2.90;2.70;;;;;;;;;;5115500;28;20407;-70
2023/09/05 02:57:38;;;;;;;3.03;2.73;;;;;;;;;;5115425;28;20410;-70
2023/09/05 03:00:06;;;;;;;4.30;3.23;;;;;;;;;;5097090;28;20522;-70
2023/09/05 03:02:32;;;;;;;3.67;2.80;;;;;;;;;;5115497;28;20403;-71
2023/09/05 03:04:58;;;;;;;2.63;2.43;;;;;;;;;;5115118;28;20414;-69
2023/09/05 03:07:24;;;;;;;3.30;3.00;;;;;;;;;;5115432;28;20419;-70
2023/09/05 03:09:50;;;;;;;3.10;2.77;;;;;;;;;;5115481;28;20411;-69
2023/09/05 03:12:17;;;;;;;2.97;2.60;;;;;;;;;;5115506;28;20410;-70
2023/09/05 03:14:44;;;;;;;4.40;2.70;;;;;;;;;;5115477;28;20410;-71
2023/09/05 03:17:11;;;;;;;3.13;2.53;;;;;;;;;;5115623;28;20458;-70
2023/09/05 03:19:38;;;;;;;3.10;2.80;;;;;;;;;;5115506;28;20545;-70
2023/09/05 03:22:04;;;;;;;2.87;2.53;;;;;;;;;;5114705;28;20411;-70
2023/09/05 03:24:30;;;;;;;3.80;2.33;;;;;;;;;;5114987;28;20421;-70
2023/09/05 03:26:56;;;;;;;3.37;2.80;;;;;;;;;;5114737;28;20426;-70
2023/09/05 03:29:22;;;;;;;3.90;2.57;;;;;;;;;;5114880;28;20502;-70
2023/09/05 03:31:48;;;;;;;3.03;2.17;;;;;;;;;;5114730;28;20417;-70
2023/09/05 03:34:13;;;;;;;4.00;2.73;;;;;;;;;;5096624;28;20414;-70
2023/09/05 03:36:39;;;;;;;3.03;2.70;;;;;;;;;;5114279;28;20434;-70
2023/09/05 03:39:05;;;;;;;3.27;2.93;;;;;;;;;;5115148;28;20890;-71
2023/09/05 03:41:31;;;;;;;7.80;3.17;;;;;;;;;;5114749;28;20891;-70
2023/09/05 03:43:57;;;;;;;3.20;2.03;;;;;;;;;;5096522;28;20417;-70
2023/09/05 03:46:23;;;;;;;4.53;2.87;;;;;;;;;;5114226;28;20502;-70
2023/09/05 03:48:50;;;;;;;3.00;2.20;;;;;;;;;;5115149;28;20769;-70
2023/09/05 03:51:16;;;;;;;3.50;2.47;;;;;;;;;;5114484;28;20962;-71
2023/09/05 03:53:42;;;;;;;3.30;2.70;;;;;;;;;;5114377;28;20449;-70
2023/09/05 03:56:08;;;;;;;3.10;2.77;;;;;;;;;;5114840;28;20848;-70
2023/09/05 03:58:34;;;;;;;2.70;1.90;;;;;;;;;;5114631;28;20857;-70
2023/09/05 04:01:03;;;;;;;3.57;2.40;;;;;;;;;;5114415;28;20760;-71
2023/09/05 04:03:30;;;;;;;3.27;2.50;;;;;;;;;;5114275;28;20493;-71
2023/09/05 04:06:00;;;;;;;2.80;2.23;;;16.10;22.70;;;;;;5097712;28;20450;-70
2023/09/05 04:08:26;;;;;;;3.13;2.43;;;16.00;22.40;;;;;;5115757;28;20410;-70
2023/09/05 04:10:59;;;;;;;3.80;1.70;;;15.90;21.90;;;;;;5096883;28;20419;-71
2023/09/05 04:13:26;;;;;;;3.13;2.57;;;15.90;22.50;;;;;;5115433;28;20226;-70
2023/09/05 04:15:51;;;;;;;3.20;2.30;;;15.80;23.50;;;;;;5115548;28;20529;-70
2023/09/05 04:18:18;;;;;;;3.00;2.50;;;15.80;23.30;;;;;;5096905;28;20497;-70
2023/09/05 04:20:43;;;;;;;3.77;1.80;;;15.80;21.50;;;;;;5114685;28;20207;-70
2023/09/05 04:23:09;;;;;;;5.47;2.67;;;15.70;22.00;;;;;;5114342;28;20410;-70
2023/09/05 04:25:40;;;;;;;3.43;2.63;;;15.50;22.20;;;;;;5114267;28;20283;-71
2023/09/05 04:28:06;;;;;;;4.60;2.80;;;15.50;22.70;;;;;;5114466;28;20713;-69
2023/09/05 04:30:33;;;;;;;3.33;1.80;;;15.50;23.10;;;;;;5114402;28;20411;-69
2023/09/05 04:33:00;;;;;;;4.83;2.43;;;15.40;23.30;;;;;;5114526;28;20417;-70
2023/09/05 04:35:26;;;;;;;4.03;2.30;;;15.40;23.80;;;;;;5114340;28;20498;-69
2023/09/05 04:37:52;;;;;;;3.40;2.60;;;15.40;23.80;;;;;;5113328;28;20417;-70
2023/09/05 04:40:18;;;;;;;3.27;1.90;;;15.50;23.90;;;;;;5113244;28;20566;-69
2023/09/05 04:42:44;;;;;;;5.77;2.57;;;15.30;24.50;;;;;;5113292;28;20402;-68
2023/09/05 04:45:09;;;;;;;11.87;2.43;;;15.30;24.30;;;;;;5112967;28;20410;-69
2023/09/05 04:47:35;;;;;;;3.50;2.33;;;15.40;24.80;;;;;;5112875;28;20180;-69
2023/09/05 04:50:01;;;;;;;3.10;1.90;;;15.30;25.20;;;;;;5113065;28;20287;-69
2023/09/05 04:52:28;;;;;;;5.20;2.70;;;15.30;25.30;;;;;;5112809;28;20271;-69
2023/09/05 04:54:58;;;;;;;3.27;2.37;;;15.30;25.80;;;;;;5113159;28;20179;-69
2023/09/05 04:57:24;;;;;;;3.60;2.30;;;15.30;25.50;;;;;;5113048;28;20461;-70
2023/09/05 04:59:56;;;;;;;4.53;2.77;;;15.30;26.20;;;;;;5112562;28;20759;-70
2023/09/05 05:02:23;;;;;;;4.77;3.03;;;15.30;26.20;;;;;;5112391;28;20436;-70
2023/09/05 05:04:49;;;;;;;5.63;2.57;;;15.30;26.40;;;;;;5112394;28;20478;-69
2023/09/05 05:07:14;;;;;;;3.53;2.40;;;15.40;25.30;;;;;;5112288;28;20947;-68
2023/09/05 05:09:40;;;;;;;4.40;2.40;;;15.40;24.60;;;;;;5112529;28;20230;-70
2023/09/05 05:12:06;;;;;;;3.23;1.90;;;15.40;24.90;;;;;;5112759;28;20266;-70
2023/09/05 05:14:32;;;;;;;4.20;2.67;;;15.40;24.90;;;;;;5094750;28;20410;-69
2023/09/05 05:16:57;;;;;;;3.10;2.50;;;15.40;26.10;;;;;;5112424;28;20474;-69
2023/09/05 05:19:23;;;;;;;3.10;2.37;;;15.40;26.30;;;;;;5112631;28;20291;-68
2023/09/05 05:21:49;;;;;;;4.20;2.30;;;15.40;25.10;;;;;;5112608;28;20255;-68
2023/09/05 05:24:15;;;;;;;2.77;1.57;;;15.40;24.70;;;;;;5116051;28;20407;-70
2023/09/05 05:26:42;;;;;;;3.37;1.90;;;15.50;24.30;;;;;;5112091;28;20423;-68
2023/09/05 05:29:07;;;;;;;4.50;2.90;;;15.50;23.60;;;;;;5112350;28;20458;-69
2023/09/05 05:31:33;;;;;;;4.20;2.77;;;15.60;24.70;;;;;;5113513;28;20959;-72
2023/09/05 05:34:03;;;;;;;5.93;3.00;;;15.60;23.80;;;;;;5113638;28;20200;-68
2023/09/05 05:36:29;;;;;;;3.13;2.60;;;16.10;23.60;;;;;;5112770;28;20203;-68
2023/09/05 05:38:56;;;;;;;3.47;3.00;;;18.30;17.80;;;;;;5112284;28;20406;-69
2023/09/05 05:41:21;;;;;;;5.43;4.13;;;20.60;11.00;;;;;;5114415;28;20414;-68
2023/09/05 05:43:47;;;;;;;5.63;3.23;;;22.40;6.60;;;;;;5114976;28;20517;-69
2023/09/05 05:46:14;;;;;;;4.93;4.40;;;24.70;3.70;;;;;;5116324;28;20378;-69
2023/09/05 05:48:41;;;;;;;4.67;4.17;;;26.40;1.00;;;;;;5118516;28;20173;-68
2023/09/05 05:51:07;;;;;;;5.57;5.00;;;27.50;1.00;;;;;;5099968;28;20977;-69
2023/09/05 05:53:32;;;;;;;5.57;4.17;;;27.90;1.00;;;;;;5117590;28;20410;-68
2023/09/05 05:55:58;;;;;;;8.43;4.70;;;28.20;1.00;;;;;;5097488;28;20541;-69
2023/09/05 05:58:24;;;;;;;5.70;5.10;;;29.00;1.00;;;;;;5114605;28;20263;-68
2023/09/05 06:00:52;;;;;;;5.13;4.27;;;29.50;1.00;;;;;;5117976;28;20472;-70
2023/09/05 06:03:21;;;;;;;4.60;4.20;;;29.60;1.00;;;;;;5118215;28;20255;-68
2023/09/05 06:05:48;;;;;;;5.23;4.47;;;30.40;1.00;;;;;;5117439;28;20503;-69
2023/09/05 06:08:14;;;;;;;8.30;4.97;;;30.40;1.00;;;;;;5116364;28;20426;-70
2023/09/05 06:10:40;;;;;;;4.47;4.17;;;30.30;1.00;;;;;;5116872;28;20425;-69
2023/09/05 06:13:05;;;;;;;3.63;3.33;;;30.80;1.00;;;;;;5119684;28;20417;-69
2023/09/05 06:15:34;;;;;;;4.97;4.57;;;30.20;1.00;;;;;;5123317;28;20269;-69
2023/09/05 06:18:00;;;;;;;4.13;3.73;;;30.10;1.00;;;;;;5119146;28;20244;-69
2023/09/05 06:20:26;;;;;;;4.40;3.83;;;29.70;1.00;;;;;;5098141;28;20472;-69
2023/09/05 06:22:52;;;;;;;4.10;3.70;;;30.50;1.00;;;;;;5115890;28;20516;-69
2023/09/05 06:25:17;;;;;;;129.97;32.33;;;30.70;1.00;;;;;;5117300;28;20172;-69
2023/09/05 06:27:43;;;;;;;80.17;22.80;;;30.90;1.00;;;;;;5117665;28;20233;-69
2023/09/05 06:30:12;;;;;;;35.97;10.00;;;31.00;1.00;;;;;;5119326;28;20301;-69
2023/09/05 06:32:38;;;;;;;10.43;4.37;;;30.50;1.00;;;;;;5120270;28;20173;-70
2023/09/05 06:35:07;;;;;;;23.33;10.17;;;30.80;1.00;;;;;;5106591;28;20530;-70
2023/09/05 06:37:36;;;;;;;49.37;15.43;;;31.80;1.00;;;;;;5120267;28;20697;-75
2023/09/05 06:40:05;;;;;;;12.77;7.40;;;32.40;1.00;;;;;;5115345;28;20461;-72
2023/09/05 06:42:31;;;;;;;133.47;33.87;;;32.40;1.00;;;;;;5115383;28;20891;-72
2023/09/05 06:44:56;;;;;;;18.73;8.37;;;32.20;1.00;;;;;;5114887;28;20497;-72
2023/09/05 06:47:22;;;;;;;7.40;4.80;;;32.30;1.00;;;;;;5103252;28;20217;-72
2023/09/05 06:49:47;;;;;;;484.63;127.63;;;32.20;1.00;;;;;;5091762;28;20599;-71
2023/09/05 06:52:13;;;;;;;19.87;9.10;;;32.60;1.00;;;;;;5092343;28;20805;-71
2023/09/05 06:54:38;;;;;;;8.90;4.90;;;33.20;1.00;;;;;;5092815;28;20193;-71
2023/09/05 06:57:04;;;;;;;4.73;4.33;;;33.50;1.00;;;;;;5092184;28;20703;-71
2023/09/05 06:59:29;;;;;;;5.13;4.50;;;34.90;1.00;;;;;;5090975;28;20213;-71
2023/09/05 07:01:55;;;;;;;5.60;4.67;;;35.20;1.00;;;;;;5082160;28;20198;-72
2023/09/05 07:04:20;;;;;;;5.70;5.20;;;35.90;1.00;;;;;;5110863;28;20826;-72
2023/09/05 07:06:47;;;;;;;5.60;5.10;;;35.70;1.00;;;;;;5114381;28;20208;-70
2023/09/05 07:09:14;;;;;;;5.83;4.50;;;36.90;1.00;;;;;;5115550;28;20173;-74
2023/09/05 07:11:40;;;;;;;4.67;4.27;;;36.10;1.00;;;;;;5113610;28;20517;-70
2023/09/05 07:14:06;;;;;;;5.70;4.33;;;35.60;1.00;;;;;;5113375;28;20514;-70
2023/09/05 07:16:31;;;;;;;4.57;4.17;;;36.10;1.00;;;;;;5114721;28;20197;-72
2023/09/05 07:18:57;;;;;;;4.60;4.20;;;36.10;1.00;;;;;;5114040;28;20549;-71
2023/09/05 07:21:22;;;;;;;4.60;4.27;;;37.10;1.00;;;;;;5114088;28;20189;-72
2023/09/05 07:23:48;;;;;;;5.40;4.87;;;36.20;1.00;;;;;;5114075;28;20251;-71
2023/09/05 07:26:13;;;;;;;5.17;4.80;;;34.70;1.00;;;;;;5095702;28;20189;-71
2023/09/05 07:28:39;;;;;;;4.20;3.90;;;32.90;1.00;;;;;;5102925;28;20723;-71
2023/09/05 07:31:04;;;;;;;4.53;4.13;;;31.30;1.00;;;;;;5112748;28;20642;-71
2023/09/05 07:33:31;;;;;;;4.87;3.97;;;29.40;1.00;;;;;;5093756;28;20265;-71
2023/09/05 07:35:57;;;;;;;4.10;3.77;;;27.50;1.00;;;;;;5093403;28;20201;-71
2023/09/05 07:38:23;;;;;;;5.80;5.20;;;26.10;1.00;;;;;;5093409;28;20408;-71
2023/09/05 07:40:59;;;;;;;3.40;3.20;;;25.30;1.00;;;;;;5093544;28;20833;-71
2023/09/05 07:43:25;;;;;;;4.93;3.73;;;25.10;1.00;;;;;;5078623;28;20170;-71
2023/09/05 07:45:50;;;;;;;6.60;3.57;;;24.70;1.00;;;;;;5113471;28;20470;-70
2023/09/05 07:48:16;;;;;;;4.37;4.07;;;24.80;1.00;;;;;;5108333;28;20489;-72
2023/09/05 07:50:41;;;;;;;11.50;4.07;;;25.00;1.00;;;;;;5112324;28;20254;-70
2023/09/05 07:53:07;;;;;;;4.80;4.13;;;25.40;1.00;;;;;;5108899;28;20539;-71
2023/09/05 07:55:32;;;;;;;5.57;4.93;;;25.30;1.00;;;;;;5113885;28;20299;-69
2023/09/05 07:57:58;;;;;;;6.47;4.40;;;25.20;1.00;;;;;;5113668;28;20185;-69
2023/09/05 08:00:26;;;;;;;7.60;5.20;;;25.20;1.00;;;;;;5113593;28;20258;-70
2023/09/05 08:02:52;;;;;;;14.23;6.93;;;25.60;1.00;;;;;;5113366;28;20165;-70
2023/09/05 08:05:19;;;;;;;4.60;4.20;;;26.10;1.00;;;;;;5102976;28;20416;-70
2023/09/05 08:07:45;;;;;;;4.40;4.00;;;27.40;1.00;;;;;;5086056;28;20188;-70
2023/09/05 08:10:11;;;;;;;5.60;4.63;;;28.90;1.00;;;;;;5101530;28;20423;-72
2023/09/05 08:12:37;;;;;;;4.17;3.87;;;30.70;1.00;;;;;;5108850;28;20277;-71
2023/09/05 08:15:05;;;;;;;9.53;4.23;;;32.30;1.00;;;;;;5090783;28;20434;-70
2023/09/05 08:17:31;;;;;;;5.60;5.10;;;33.90;1.00;;;;;;5109915;28;20433;-72
2023/09/05 08:19:57;;;;;;;4.70;4.40;;;34.60;1.00;;;;;;5108913;28;20466;-72
2023/09/05 08:22:23;;;;;;;6.20;5.07;;;35.40;1.00;;;;;;5108145;28;20419;-69
2023/09/05 08:24:50;;;;;;;5.03;4.63;;;36.20;1.00;;;;;;5109562;28;20426;-73
2023/09/05 08:27:15;;;;;;;4.70;4.37;;;37.50;1.00;;;;;;5108997;28;20903;-72
2023/09/05 08:29:42;;;;;;;5.80;5.00;;;36.60;1.00;;;;;;5108849;28;20514;-72
2023/09/05 08:32:08;;;;;;;5.00;4.60;;;36.50;1.00;;;;;;5108963;28;20555;-72
2023/09/05 08:34:33;;;;;;;4.40;4.00;;;35.50;1.00;;;;;;5108887;28;20414;-72
2023/09/05 08:36:59;;;;;;;4.40;4.10;;;36.10;1.00;;;;;;5108542;28;20430;-72
2023/09/05 08:39:25;;;;;;;6.93;4.90;;;36.20;1.00;;;;;;5109317;28;20280;-72
2023/09/05 08:41:51;;;;;;;7.23;6.20;;;37.40;1.00;;;;;;5098000;28;20447;-72
2023/09/05 08:44:17;;;;;;;4.63;4.23;;;37.20;1.00;;;;;;5087978;28;20422;-72
2023/09/05 08:46:43;;;;;;;4.50;4.13;;;35.50;1.00;;;;;;5101061;28;20219;-72
2023/09/05 08:49:09;;;;;;;5.00;4.47;;;32.60;1.00;;;;;;5108294;28;20189;-72
2023/09/05 08:51:39;;;;;;;5.30;4.90;;;30.20;1.00;;;;;;5108001;28;20497;-70
2023/09/05 08:54:06;;;;;;;5.20;4.80;;;28.40;1.00;;;;;;5108617;28;20180;-70
2023/09/05 08:56:33;;;;;;;5.23;4.73;;;27.50;1.00;;;;;;5112249;28;20458;-69
2023/09/05 08:59:01;;;;;;;7.07;4.03;;;26.70;1.00;;;;;;5111835;28;20945;-70
2023/09/05 09:01:29;;;;;;;4.13;3.83;;;26.00;1.00;;;;;;5112281;28;20751;-71
2023/09/05 09:03:55;;;;;;;4.67;3.93;;;25.70;1.00;;;;;;5112133;28;20433;-70
2023/09/05 09:06:25;;;;;;;3.67;3.37;;;25.20;1.00;;;;;;5111968;28;20774;-70
2023/09/05 09:08:51;;;;;;;4.23;3.83;;;25.10;1.00;;;;;;5112149;28;20422;-70
2023/09/05 09:11:20;;;;;;;4.20;3.90;;;25.00;1.00;;;;;;5112125;28;20402;-69
2023/09/05 09:13:49;;;;;;;3.70;3.40;;;24.80;1.00;;;;;;5112143;28;20413;-70
2023/09/05 09:16:19;;;;;;;4.50;4.13;;;24.70;1.00;;;;;;5112188;28;20434;-71
2023/09/05 09:19:01;;;;;;;3.90;3.60;;;24.60;1.00;;;;;;5111574;28;20457;-70
2023/09/05 09:21:30;;;;;;;6.00;3.93;;;24.80;1.00;;;;;;5111830;28;20409;-70
2023/09/05 09:24:08;;;;;;;3.80;3.50;;;24.70;1.00;;;;;;5111864;28;20418;-69
2023/09/05 09:26:35;;;;;;;4.50;4.10;;;24.80;1.00;;;;;;5111789;28;20518;-70
2023/09/05 09:29:02;;;;;;;4.57;4.17;;;24.90;1.00;;;;;;5111676;28;20453;-69
2023/09/05 09:31:29;;;;;;;3.87;3.47;;;25.00;1.00;;;;;;5111755;28;20419;-70
2023/09/05 09:33:58;;;;;;;4.40;4.10;;;24.90;1.00;;;;;;5112868;28;20410;-69
2023/09/05 09:36:35;;;;;;;4.33;3.93;;;25.00;1.30;;;;;;5115857;28;20567;-69
2023/09/05 09:39:11;;;;;;;3.77;3.47;;;25.20;1.00;;;;;;5116249;28;20459;-70
2023/09/05 09:41:45;;;;;;;3.90;3.60;;;25.40;1.00;;;;;;5107551;28;20441;-71
2023/09/05 09:44:24;;;;;;;4.33;4.03;;;25.50;1.00;;;;;;5095807;28;20408;-70
2023/09/05 09:46:50;;;;;;;4.33;3.93;;;25.70;1.00;;;;;;5103808;28;20797;-71
2023/09/05 09:49:16;;;;;;;6.37;4.07;;;25.80;1.00;;;;;;5116251;28;20417;-68
2023/09/05 09:51:43;;;;;;;4.40;4.03;;;25.80;1.00;;;;;;5115600;28;20465;-72
2023/09/05 09:54:12;;;;;;;4.77;3.43;;;25.80;1.00;;;;;;5115912;28;20414;-72
2023/09/05 09:56:40;;;;;;;4.03;3.73;;;25.80;1.00;;;;;;5115614;28;20460;-71
2023/09/05 09:59:07;;;;;;;3.97;3.67;;;25.90;1.00;;;;;;5110317;28;20854;-71
2023/09/05 10:01:34;;;;;;;3.70;3.40;;;26.00;1.00;;;;;;5094388;28;20506;-71
2023/09/05 10:03:59;;;;;;;7.30;4.17;;;26.00;1.00;;;;;;5093402;28;20422;-71
2023/09/05 10:06:26;;;;;;;4.40;4.10;;;26.00;1.00;;;;;;5093203;28;20836;-71
2023/09/05 10:08:52;;;;;;;3.77;3.30;;;25.90;1.00;;;;;;5093409;28;20252;-72
2023/09/05 10:11:20;;;;;;;3.70;3.40;;;25.80;1.00;;;;;;5093422;28;20408;-71
2023/09/05 10:13:48;;;;;;;4.63;4.27;;;26.00;1.00;;;;;;5093000;28;20822;-71
2023/09/05 10:16:15;;;;;;;4.03;3.73;;;26.10;1.00;;;;;;5093358;28;20423;-71
2023/09/05 10:18:43;;;;;;;3.80;3.50;;;26.30;1.00;;;;;;5095448;28;20418;-69
2023/09/05 10:21:10;;;;;;;3.90;3.60;;;26.10;1.00;;;;;;5095943;28;20470;-70
2023/09/05 10:23:37;;;;;;;5.03;4.63;;;26.20;1.00;;;;;;5095623;28;20403;-70
2023/09/05 10:26:04;;;;;;;4.50;4.20;;;26.40;1.00;;;;;;5095404;28;20430;-70
2023/09/05 10:28:31;;;;;;;4.40;4.10;;;26.50;1.00;;;;;;5095496;28;20540;-70
2023/09/05 10:31:12;;;;;;;4.83;3.93;;;26.60;1.00;;;;;;5095671;28;20411;-70
2023/09/05 10:33:38;;;;;;;3.90;3.63;;;26.70;1.00;;;;;;5095010;28;20884;-70
2023/09/05 10:36:06;;;;;;;4.23;3.60;;;26.80;1.00;;;;;;5094972;28;20481;-70
2023/09/05 10:38:36;;;;;;;4.00;3.70;;;26.90;1.00;;;;;;5094977;28;20417;-71
2023/09/05 10:41:02;;;;;;;3.67;3.40;;;26.80;1.00;;;;;;5095161;28;20474;-70
2023/09/05 10:43:28;;;;;;;5.00;4.50;;;26.90;1.00;;;;;;5094612;28;20426;-70
2023/09/05 10:45:55;;;;;;;4.03;3.63;;;27.00;1.00;;;;;;5094508;28;20430;-70
2023/09/05 10:48:42;;;;;;;4.10;3.80;;;27.10;1.00;;;;;;5094681;28;20435;-70
2023/09/05 10:51:13;;;;;;;4.40;3.63;;;27.30;1.00;;;;;;5094651;28;20434;-70
2023/09/05 10:53:46;;;;;;;4.00;3.70;;;27.40;1.00;;;;;;5094879;28;20978;-70
2023/09/05 10:56:37;;;;;;;4.23;3.83;;;27.50;1.00;;;;;;5094650;28;20451;-70
2023/09/05 10:59:03;;;;;;;4.33;3.93;;;27.40;1.00;;;;;;5094430;28;20869;-70
2023/09/05 11:01:34;;;;;;;3.73;3.43;;;27.50;1.00;;;;;;5094191;28;20419;-71
2023/09/05 11:04:07;;;;;;;3.73;3.47;;;27.80;1.00;;;;;;5094387;28;20534;-71
2023/09/05 11:06:36;;;;;;;4.40;3.83;;;27.90;1.00;;;;;;5094360;28;21018;-71
2023/09/05 11:09:05;;;;;;;3.80;3.50;;;28.10;1.00;;;;;;5094376;28;20490;-71
2023/09/05 11:11:45;;;;;;;4.00;3.70;;;28.30;1.00;;;;;;5094059;28;20776;-71
2023/09/05 11:14:10;;;;;;;5.10;4.80;;;28.40;1.00;;;;;;5094227;28;20400;-70
2023/09/05 11:16:47;;;;;;;4.13;3.83;;;28.50;1.00;;;;;;5094156;28;20978;-71
2023/09/05 11:19:35;;;;;;;3.73;3.40;;;28.50;1.00;;;;;;5094075;28;20280;-71
2023/09/05 11:22:22;;;;;;;5.00;4.50;;;28.70;1.00;;;;;;5093695;28;20407;-71
2023/09/05 11:24:58;;;;;;;4.17;3.87;;;28.90;1.00;;;;;;5093897;28;20798;-71
2023/09/05 11:27:29;;;;;;;3.80;3.50;;;28.90;1.00;;;;;;5093852;28;20426;-71
2023/09/05 11:29:57;;;;;;;4.47;4.17;;;28.90;1.00;;;;;;5093924;28;20703;-71
2023/09/05 11:32:32;;;;;;;19.23;6.97;;;28.70;1.00;;;;;;5093548;28;20928;-71
2023/09/05 11:34:58;;;;;;;5.00;3.50;;;28.70;1.00;;;;;;5084839;28;21000;-71
2023/09/05 11:37:24;;;;;;;4.43;4.03;;;28.80;1.00;;;;;;5093748;28;20442;-70
2023/09/05 11:39:51;;;;;;;4.70;4.33;;;28.50;1.00;;;;;;5091380;28;20462;-70
2023/09/05 11:42:22;;;;;;;4.60;3.93;;;28.40;1.00;;;;;;5075336;28;20212;-70
2023/09/05 11:44:49;;;;;;;5.70;3.70;;;28.50;1.00;;;;;;5104141;28;20449;-69
2023/09/05 11:47:15;;;;;;;4.00;3.70;;;28.60;1.00;;;;;;5113639;28;20946;-69
2023/09/05 11:49:41;;;;;;;3.97;3.67;;;28.60;1.00;;;;;;5095593;28;20415;-69
2023/09/05 11:52:09;;;;;;;4.30;4.10;;;28.60;1.00;;;;;;5093014;28;20419;-70
2023/09/05 11:54:34;;;;;;;4.27;3.90;;;28.60;1.00;;;;;;5093065;28;20821;-70
2023/09/05 11:57:02;;;;;;;4.37;4.03;;;28.60;1.00;;;;;;5092437;28;20450;-70
2023/09/05 11:59:28;;;;;;;3.93;3.73;;;28.60;1.00;;;;;;5108282;28;20196;-69
2023/09/05 12:01:54;;;;;;;4.90;4.50;;;28.70;1.00;;;;;;5113419;28;20909;-74
2023/09/05 12:04:19;;;;;;;4.97;4.03;;;28.80;1.00;;;;;;5113612;28;20407;-70
2023/09/05 12:06:49;;;;;;;4.40;4.07;;;28.80;1.00;;;;;;5113398;28;20184;-70
2023/09/05 12:09:15;;;;;;;4.10;3.80;;;28.70;1.00;;;;;;5113469;28;20188;-70
2023/09/05 12:11:44;;;;;;;4.37;4.07;;;28.70;1.00;;;;;;5113301;28;20815;-70
2023/09/05 12:14:09;;;;;;;4.30;4.00;;;28.60;1.00;;;;;;5113321;28;20195;-70
2023/09/05 12:16:35;;;;;;;4.43;4.03;;;28.60;1.00;;;;;;5113318;28;20434;-70
2023/09/05 12:19:02;;;;;;;4.00;3.70;;;28.80;1.00;;;;;;5113152;28;20260;-71
2023/09/05 12:21:44;;;;;;;4.20;3.90;;;28.90;1.00;;;;;;5113147;28;20540;-70
2023/09/05 12:24:24;;;;;;;4.10;3.80;;;29.10;1.00;;;;;;5113304;28;20499;-70
2023/09/05 12:26:52;;;;;;;4.40;4.10;;;29.10;1.00;;;;;;5113069;28;20425;-70
2023/09/05 12:29:22;;;;;;;3.87;3.67;;;29.20;1.00;;;;;;5095899;28;20986;-70
2023/09/05 12:31:49;;;;;;;4.00;3.70;;;29.30;1.00;;;;;;5092380;28;20877;-70
2023/09/05 12:34:15;;;;;;;4.43;4.13;;;29.20;1.00;;;;;;5092588;28;20464;-70
2023/09/05 12:36:41;;;;;;;5.33;4.03;;;29.30;1.00;;;;;;5092640;28;20940;-70
2023/09/05 12:39:07;;;;;;;4.30;4.00;;;29.30;1.00;;;;;;5092304;28;20559;-70
2023/09/05 12:41:32;;;;;;;3.90;3.70;;;29.30;1.00;;;;;;5092467;28;20226;-70
2023/09/05 12:43:58;;;;;;;4.00;3.67;;;29.40;1.00;;;;;;5092530;28;20665;-70
2023/09/05 12:46:29;;;;;;;3.87;3.63;;;29.50;1.00;;;;;;5092564;28;20189;-69
2023/09/05 12:48:57;;;;;;;4.17;3.77;;;29.70;1.00;;;;;;5091344;28;20422;-70
2023/09/05 12:51:23;;;;;;;3.80;3.60;;;29.90;1.00;;;;;;5092120;28;20468;-69
2023/09/05 12:53:49;;;;;;;4.70;3.50;;;29.90;1.00;;;;;;5073736;28;20503;-70
2023/09/05 12:56:16;;;;;;;3.93;3.63;;;29.90;1.00;;;;;;5091684;28;20451;-69
2023/09/05 12:58:41;;;;;;;3.70;3.50;;;29.90;1.00;;;;;;5092195;28;20413;-70
2023/09/05 13:01:07;;;;;;;4.03;3.73;;;30.00;1.00;;;;;;5092118;28;20459;-70
2023/09/05 13:03:34;;;;;;;3.70;3.50;;;30.20;1.00;;;;;;5091869;28;20539;-69
2023/09/05 13:06:00;;;;;;;3.60;3.30;;;30.10;1.00;;;;;;5091883;28;20705;-69
2023/09/05 13:08:25;;;;;;;4.10;3.80;;;30.00;1.00;;;;;;5091850;28;20494;-70
2023/09/05 13:10:51;;;;;;;3.80;3.50;;;29.90;1.00;;;;;;5091815;28;20212;-69
2023/09/05 13:13:17;;;;;;;3.70;3.40;;;29.80;1.00;;;;;;5091458;28;20542;-69
2023/09/05 13:15:43;;;;;;;3.73;3.53;;;29.80;1.00;;;;;;5091897;28;20290;-70
2023/09/05 13:18:10;;;;;;;4.60;4.30;;;29.80;1.00;;;;;;5091884;28;20182;-70
2023/09/05 13:20:35;;;;;;;4.30;3.77;;;29.70;1.00;;;;;;5091709;28;20469;-70
2023/09/05 13:23:01;;;;;;;3.73;3.47;;;29.80;1.00;;;;;;5091486;28;20403;-70
2023/09/05 13:25:32;;;;;;;3.80;3.50;;;29.90;1.00;;;;;;5091840;28;20273;-70